createdAt,value
2023-01-13T00:00:32.779Z,100215.91
2023-01-13T00:02:35.717Z,100202.97
2023-01-13T00:04:38.605Z,100202.13
2023-01-13T00:06:41.385Z,100210.88
2023-01-13T00:08:44.279Z,100209.03
2023-01-13T00:10:48.577Z,100203.03
2023-01-13T00:12:53.444Z,100202.16
2023-01-13T00:14:56.227Z,100201.28
2023-01-13T00:16:58.965Z,100206.44
2023-01-13T00:19:01.737Z,100205.50
2023-01-13T00:21:07.257Z,100189.94
2023-01-13T00:23:10.122Z,100184.72
2023-01-13T00:25:13.303Z,100185.75
2023-01-13T00:27:16.048Z,100191.78
2023-01-13T00:29:20.869Z,100183.94
2023-01-13T00:31:23.739Z,100182.13
2023-01-13T00:33:26.667Z,100179.56
2023-01-13T00:35:29.688Z,100181.28
2023-01-13T00:37:32.420Z,100177.03
2023-01-13T00:39:35.290Z,100184.88
2023-01-13T00:41:51.995Z,100180.50
2023-01-13T00:43:54.758Z,100183.91
2023-01-13T00:45:59.642Z,100174.41
2023-01-13T00:48:02.211Z,100169.25
2023-01-13T00:50:05.441Z,100173.56
2023-01-13T00:52:08.226Z,100171.84
2023-01-13T00:54:10.976Z,100165.75
2023-01-13T00:56:18.109Z,100169.16
2023-01-13T00:58:20.998Z,100169.09
2023-01-13T01:00:23.933Z,100160.44
2023-01-13T01:02:28.201Z,100156.13
2023-01-13T01:04:31.847Z,100157.84
2023-01-13T01:06:34.798Z,100148.38
2023-01-13T01:08:37.833Z,100153.47
2023-01-13T01:10:40.644Z,100143.97
2023-01-13T01:12:43.472Z,100134.31
2023-01-13T01:14:46.419Z,100139.50
2023-01-13T01:16:49.171Z,100136.03
2023-01-13T01:18:54.436Z,100132.53
2023-01-13T01:21:00.618Z,100129.94
2023-01-13T01:23:03.434Z,100140.25
2023-01-13T01:25:07.046Z,100141.13
2023-01-13T01:27:09.783Z,100137.69
2023-01-13T01:29:15.058Z,100142.13
2023-01-13T01:31:19.822Z,100144.78
2023-01-13T01:33:23.006Z,100149.09
2023-01-13T01:35:27.167Z,100141.34
2023-01-13T01:37:29.904Z,100139.63
2023-01-13T01:39:32.755Z,100136.22
2023-01-13T01:41:37.062Z,100140.50
2023-01-13T01:44:02.845Z,100137.72
2023-01-13T01:46:06.588Z,100135.22
2023-01-13T01:48:10.303Z,100127.47
2023-01-13T01:50:13.217Z,100122.31
2023-01-13T01:52:20.133Z,100122.34
2023-01-13T01:54:27.371Z,100127.50
2023-01-13T01:56:31.175Z,100127.50
2023-01-13T01:58:38.565Z,100118.88
2023-01-13T02:00:41.424Z,100109.31
2023-01-13T02:02:46.996Z,100112.78
2023-01-13T02:04:53.933Z,100117.03
2023-01-13T02:06:57.901Z,100110.13
2023-01-13T02:09:02.299Z,100115.38
2023-01-13T02:11:05.235Z,100115.38
2023-01-13T02:13:10.692Z,100124.06
2023-01-13T02:15:17.078Z,100111.97
2023-01-13T02:17:31.361Z,100112.84
2023-01-13T02:20:08.006Z,100108.47
2023-01-13T02:22:33.557Z,100104.16
2023-01-13T02:25:13.107Z,100101.50
2023-01-13T02:27:54.355Z,100103.25
2023-01-13T02:30:27.697Z,100101.47
2023-01-13T02:32:41.097Z,100090.19
2023-01-13T02:34:54.376Z,100094.56
2023-01-13T02:37:02.945Z,100103.25
2023-01-13T02:39:13.001Z,100093.75
2023-01-13T02:41:39.352Z,100091.94
2023-01-13T02:44:00.925Z,100091.13
2023-01-13T02:46:14.338Z,100087.59
2023-01-13T02:48:20.123Z,100084.13
2023-01-13T02:50:28.621Z,100073.69
2023-01-13T02:52:36.988Z,100082.34
2023-01-13T02:54:43.862Z,100077.13
2023-01-13T02:56:49.600Z,100076.28
2023-01-13T02:58:54.770Z,100070.16
2023-01-13T03:00:57.768Z,100063.31
2023-01-13T03:03:03.151Z,100064.97
2023-01-13T03:05:06.887Z,100064.09
2023-01-13T03:07:14.378Z,100062.44
2023-01-13T03:09:23.436Z,100058.94
2023-01-13T03:11:34.503Z,100052.84
2023-01-13T03:14:01.068Z,100058.06
2023-01-13T03:16:16.006Z,100059.75
2023-01-13T03:18:33.003Z,100045.06
2023-01-13T03:20:41.154Z,100050.25
2023-01-13T03:22:49.504Z,100045.94
2023-01-13T03:24:57.354Z,100039.88
2023-01-13T03:27:05.259Z,100037.28
2023-01-13T03:29:12.828Z,100033.88
2023-01-13T03:31:20.763Z,100034.66
2023-01-13T03:33:30.332Z,100037.28
2023-01-13T03:35:38.576Z,100038.97
2023-01-13T03:37:46.955Z,100030.38
2023-01-13T03:39:54.986Z,100039.91
2023-01-13T03:42:01.840Z,100037.34
2023-01-13T03:44:24.897Z,100036.50
2023-01-13T03:46:34.939Z,100040.75
2023-01-13T03:48:44.916Z,100034.72
2023-01-13T03:50:51.496Z,100032.13
2023-01-13T03:52:59.515Z,100030.31
2023-01-13T03:55:05.955Z,100026.84
2023-01-13T03:57:13.280Z,100035.47
2023-01-13T03:59:21.653Z,100025.97
2023-01-13T04:01:31.729Z,100027.72
2023-01-13T04:03:40.967Z,100015.66
2023-01-13T04:05:52.601Z,100020.88
2023-01-13T04:08:03.293Z,100014.72
2023-01-13T04:10:09.200Z,100013.00
2023-01-13T04:12:16.638Z,100013.06
2023-01-13T04:14:21.547Z,100010.47
2023-01-13T04:16:24.741Z,100012.16
2023-01-13T04:18:30.465Z,100006.91
2023-01-13T04:20:33.235Z,100003.41
2023-01-13T04:22:37.490Z,99999.13
2023-01-13T04:24:40.278Z,99999.97
2023-01-13T04:26:43.010Z,100003.38
2023-01-13T04:28:45.775Z,99991.22
2023-01-13T04:30:48.962Z,99992.06
2023-01-13T04:32:51.777Z,100002.53
2023-01-13T04:34:54.566Z,99995.66
2023-01-13T04:36:57.515Z,99999.09
2023-01-13T04:39:01.649Z,99996.53
2023-01-13T04:41:04.512Z,100006.88
2023-01-13T04:43:07.523Z,99997.31
2023-01-13T04:45:11.254Z,99994.75
2023-01-13T04:47:14.003Z,100002.56
2023-01-13T04:49:16.878Z,100002.59
2023-01-13T04:51:21.345Z,99996.53
2023-01-13T04:53:24.141Z,99993.94
2023-01-13T04:55:28.787Z,99987.91
2023-01-13T04:57:33.196Z,99989.66
2023-01-13T04:59:35.978Z,99990.53
2023-01-13T05:01:38.926Z,99996.56
2023-01-13T05:03:41.802Z,99986.19
2023-01-13T05:05:44.641Z,99987.00
2023-01-13T05:07:47.552Z,99991.34
2023-01-13T05:09:50.459Z,99969.72
2023-01-13T05:12:12.010Z,99983.56
2023-01-13T05:14:32.138Z,99979.28
2023-01-13T05:16:52.434Z,99980.16
2023-01-13T05:18:55.483Z,99984.41
2023-01-13T05:20:58.762Z,99972.34
2023-01-13T05:23:19.029Z,99981.88
2023-01-13T05:25:25.256Z,99973.25
2023-01-13T05:27:30.265Z,99975.75
2023-01-13T05:29:32.913Z,99976.59
2023-01-13T05:31:36.050Z,99983.53
2023-01-13T05:33:38.873Z,99967.97
2023-01-13T05:35:43.766Z,99955.88
2023-01-13T05:37:47.042Z,99958.44
2023-01-13T05:40:07.887Z,99963.66
2023-01-13T05:42:28.131Z,99967.16
2023-01-13T05:44:32.225Z,99969.72
2023-01-13T05:46:35.113Z,99966.19
2023-01-13T05:48:39.572Z,99968.81
2023-01-13T05:50:42.389Z,99965.41
2023-01-13T05:52:45.503Z,99980.97
2023-01-13T05:54:48.284Z,99989.59
2023-01-13T05:56:56.712Z,99989.59
2023-01-13T05:58:59.789Z,99975.88
2023-01-13T06:01:05.999Z,99977.53
2023-01-13T06:03:09.086Z,99981.88
2023-01-13T06:05:11.946Z,99977.56
2023-01-13T06:07:14.705Z,99978.47
2023-01-13T06:09:17.603Z,99980.19
2023-01-13T06:11:20.577Z,99984.56
2023-01-13T06:13:36.771Z,99992.28
2023-01-13T06:15:39.657Z,99999.19
2023-01-13T06:17:43.735Z,100009.56
2023-01-13T06:19:46.420Z,100001.81
2023-01-13T06:21:49.214Z,100018.19
2023-01-13T06:23:51.998Z,100007.75
2023-01-13T06:26:02.192Z,100013.81
2023-01-13T06:28:05.284Z,100028.53
2023-01-13T06:30:09.565Z,100026.84
2023-01-13T06:32:17.417Z,100029.34
2023-01-13T06:34:21.776Z,100018.16
2023-01-13T06:36:27.835Z,100031.09
2023-01-13T06:38:35.906Z,100022.44
2023-01-13T06:40:39.043Z,100053.47
2023-01-13T06:43:00.042Z,100069.88
2023-01-13T06:45:02.884Z,100067.19
2023-01-13T06:47:06.144Z,100075.75
2023-01-13T06:49:09.193Z,100080.78
2023-01-13T06:51:14.395Z,100078.16
2023-01-13T06:53:49.141Z,100079.81
2023-01-13T06:55:52.069Z,100081.41
2023-01-13T06:57:56.887Z,100077.06
2023-01-13T06:59:59.646Z,100070.13
2023-01-13T07:02:02.956Z,100074.38
2023-01-13T07:04:06.143Z,100066.56
2023-01-13T07:06:09.214Z,100077.72
2023-01-13T07:08:13.382Z,100075.09
2023-01-13T07:10:22.051Z,100068.06
2023-01-13T07:12:24.902Z,100061.94
2023-01-13T07:14:45.031Z,100072.28
2023-01-13T07:16:47.905Z,100071.31
2023-01-13T07:18:50.862Z,100067.94
2023-01-13T07:20:54.831Z,100078.34
2023-01-13T07:22:58.882Z,100087.00
2023-01-13T07:25:03.070Z,100080.91
2023-01-13T07:27:05.976Z,100088.78
2023-01-13T07:29:08.803Z,100089.59
2023-01-13T07:31:16.720Z,100091.50
2023-01-13T07:33:19.893Z,100088.91
2023-01-13T07:35:23.457Z,100101.09
2023-01-13T07:37:26.264Z,100117.50
2023-01-13T07:39:29.353Z,100107.13
2023-01-13T07:41:51.040Z,100115.75
2023-01-13T07:43:53.856Z,100098.47
2023-01-13T07:45:58.448Z,100102.78
2023-01-13T07:48:01.337Z,100088.84
2023-01-13T07:50:04.505Z,100070.72
2023-01-13T07:52:07.264Z,100097.47
2023-01-13T07:54:10.104Z,100108.66
2023-01-13T07:56:12.932Z,100077.53
2023-01-13T07:58:17.197Z,100077.47
2023-01-13T08:00:21.065Z,100104.28
2023-01-13T08:02:24.246Z,100092.16
2023-01-13T08:04:27.072Z,100094.66
2023-01-13T08:06:29.936Z,100106.69
2023-01-13T08:08:32.735Z,100104.91
2023-01-13T08:10:35.506Z,100116.13
2023-01-13T08:12:55.119Z,100120.53
2023-01-13T08:15:01.473Z,100131.69
2023-01-13T08:17:04.346Z,100143.81
2023-01-13T08:19:07.117Z,100148.16
2023-01-13T08:21:11.740Z,100157.66
2023-01-13T08:23:15.771Z,100144.84
2023-01-13T08:25:18.830Z,100137.94
2023-01-13T08:27:21.631Z,100132.78
2023-01-13T08:29:24.484Z,100143.06
2023-01-13T08:31:28.701Z,100147.38
2023-01-13T08:33:31.973Z,100167.28
2023-01-13T08:35:35.155Z,100171.72
2023-01-13T08:37:37.965Z,100171.81
2023-01-13T08:39:40.710Z,100182.16
2023-01-13T08:41:56.732Z,100183.94
2023-01-13T08:43:59.663Z,100176.06
2023-01-13T08:46:05.113Z,100188.31
2023-01-13T08:48:09.824Z,100192.72
2023-01-13T08:50:13.295Z,100186.56
2023-01-13T08:52:16.731Z,100200.50
2023-01-13T08:54:19.887Z,100186.69
2023-01-13T08:56:22.748Z,100185.81
2023-01-13T08:58:28.093Z,100206.63
2023-01-13T09:00:31.644Z,100200.56
2023-01-13T09:02:35.062Z,100204.88
2023-01-13T09:04:39.958Z,100197.13
2023-01-13T09:06:42.811Z,100191.88
2023-01-13T09:08:45.982Z,100195.34
2023-01-13T09:10:48.822Z,100209.03
2023-01-13T09:13:09.518Z,100214.25
2023-01-13T09:15:12.595Z,100222.00
2023-01-13T09:17:15.818Z,100229.06
2023-01-13T09:19:18.647Z,100234.50
2023-01-13T09:21:23.032Z,100227.41
2023-01-13T09:23:25.850Z,100229.91
2023-01-13T09:25:28.756Z,100243.00
2023-01-13T09:27:31.816Z,100238.75
2023-01-13T09:29:34.611Z,100246.72
2023-01-13T09:31:37.644Z,100251.91
2023-01-13T09:34:00.411Z,100251.22
2023-01-13T09:36:03.236Z,100267.78
2023-01-13T09:38:07.815Z,100268.69
2023-01-13T09:40:17.922Z,100271.41
2023-01-13T09:42:46.743Z,100259.44
2023-01-13T09:44:57.143Z,100258.63
2023-01-13T09:47:05.518Z,100274.22
2023-01-13T09:49:13.852Z,100269.88
2023-01-13T09:51:24.638Z,100268.25
2023-01-13T09:53:31.015Z,100279.53
2023-01-13T09:55:37.062Z,100283.84
2023-01-13T09:57:40.185Z,100274.22
2023-01-13T09:59:43.779Z,100285.41
2023-01-13T10:01:57.326Z,100282.75
2023-01-13T10:04:04.718Z,100289.75
2023-01-13T10:06:14.585Z,100285.41
2023-01-13T10:08:22.955Z,100290.50
2023-01-13T10:10:34.655Z,100290.38
2023-01-13T10:12:55.115Z,100286.84
2023-01-13T10:14:58.214Z,100282.63
2023-01-13T10:17:08.603Z,100278.38
2023-01-13T10:19:19.511Z,100274.06
2023-01-13T10:21:41.551Z,100266.25
2023-01-13T10:24:03.197Z,100252.47
2023-01-13T10:26:27.969Z,100258.44
2023-01-13T10:28:30.781Z,100275.00
2023-01-13T10:30:38.720Z,100266.25
2023-01-13T10:32:44.718Z,100269.72
2023-01-13T10:34:49.553Z,100270.66
2023-01-13T10:36:57.760Z,100268.09
2023-01-13T10:39:09.411Z,100277.63
2023-01-13T10:41:24.849Z,100290.66
2023-01-13T10:43:29.369Z,100293.25
2023-01-13T10:45:32.141Z,100290.63
2023-01-13T10:47:37.792Z,100287.22
2023-01-13T10:49:41.056Z,100294.06
2023-01-13T10:51:45.519Z,100294.94
2023-01-13T10:53:54.091Z,100288.00
2023-01-13T10:56:02.359Z,100295.81
2023-01-13T10:58:15.318Z,100286.31
2023-01-13T11:00:28.663Z,100280.38
2023-01-13T11:02:33.640Z,100286.41
2023-01-13T11:04:38.825Z,100298.63
2023-01-13T11:06:47.020Z,100295.13
2023-01-13T11:08:52.470Z,100293.31
2023-01-13T11:10:57.974Z,100291.66
2023-01-13T11:13:08.402Z,100299.44
2023-01-13T11:15:19.371Z,100297.00
2023-01-13T11:17:40.535Z,100292.72
2023-01-13T11:19:58.090Z,100295.41
2023-01-13T11:22:07.115Z,100280.69
2023-01-13T11:24:17.448Z,100292.03
2023-01-13T11:26:28.255Z,100295.44
2023-01-13T11:28:42.288Z,100284.19
2023-01-13T11:30:56.218Z,100285.00
2023-01-13T11:33:16.626Z,100284.22
2023-01-13T11:35:22.634Z,100271.25
2023-01-13T11:37:28.892Z,100263.50
2023-01-13T11:39:45.523Z,100260.84
2023-01-13T11:42:13.683Z,100267.69
2023-01-13T11:44:22.275Z,100274.09
2023-01-13T11:46:29.034Z,100274.91
2023-01-13T11:48:35.547Z,100269.63
2023-01-13T11:50:43.238Z,100278.31
2023-01-13T11:53:08.461Z,100276.72
2023-01-13T11:55:23.480Z,100277.59
2023-01-13T11:57:43.246Z,100290.59
2023-01-13T12:00:10.753Z,100295.78
2023-01-13T12:02:27.947Z,100302.53
2023-01-13T12:04:40.588Z,100302.53
2023-01-13T12:06:46.025Z,100303.34
2023-01-13T12:09:22.162Z,100306.91
2023-01-13T12:11:32.106Z,100297.28
2023-01-13T12:13:57.863Z,100307.66
2023-01-13T12:16:10.019Z,100308.47
2023-01-13T12:18:41.535Z,100329.28
2023-01-13T12:20:53.781Z,100322.28
2023-01-13T12:23:01.127Z,100319.63
2023-01-13T12:25:08.244Z,100329.94
2023-01-13T12:27:16.777Z,100319.44
2023-01-13T12:29:21.521Z,100327.22
2023-01-13T12:31:25.212Z,100309.09
2023-01-13T12:33:52.427Z,100315.06
2023-01-13T12:36:03.261Z,100315.03
2023-01-13T12:38:12.609Z,100317.78
2023-01-13T12:40:35.907Z,100307.25
2023-01-13T12:43:04.951Z,100325.41
2023-01-13T12:45:34.925Z,100323.50
2023-01-13T12:47:39.053Z,100319.91
2023-01-13T12:49:45.825Z,100320.63
2023-01-13T12:52:14.872Z,100318.88
2023-01-13T12:54:54.736Z,100322.31
2023-01-13T12:56:58.180Z,100326.69
2023-01-13T12:59:51.084Z,100328.56
2023-01-13T13:02:30.818Z,100315.56
2023-01-13T13:04:47.893Z,100306.06
2023-01-13T13:06:55.311Z,100311.31
2023-01-13T13:09:04.160Z,100307.91
2023-01-13T13:11:40.610Z,100307.97
2023-01-13T13:13:45.779Z,100312.19
2023-01-13T13:15:49.740Z,100303.53
2023-01-13T13:18:04.255Z,100301.03
2023-01-13T13:20:54.317Z,100315.78
2023-01-13T13:22:57.141Z,100313.94
2023-01-13T13:25:22.608Z,100320.91
2023-01-13T13:27:29.709Z,100324.28
2023-01-13T13:29:50.631Z,100319.09
2023-01-13T13:32:20.087Z,100316.47
2023-01-13T13:34:33.088Z,100310.44
2023-01-13T13:37:06.372Z,100327.00
2023-01-13T13:39:39.676Z,100316.66
2023-01-13T13:42:03.551Z,100328.00
2023-01-13T13:44:33.687Z,100332.41
2023-01-13T13:46:49.327Z,100342.66
2023-01-13T13:48:53.890Z,100355.56
2023-01-13T13:51:02.052Z,100360.66
2023-01-13T13:53:09.152Z,100371.81
2023-01-13T13:55:18.727Z,100381.28
2023-01-13T13:57:28.052Z,100396.81
2023-01-13T13:59:33.553Z,100412.38
2023-01-13T14:01:39.559Z,100413.28
2023-01-13T14:03:42.386Z,100409.59
2023-01-13T14:05:55.025Z,100414.75
2023-01-13T14:08:02.384Z,100412.94
2023-01-13T14:10:15.169Z,100430.88
2023-01-13T14:12:20.665Z,100438.34
2023-01-13T14:14:24.881Z,100461.47
2023-01-13T14:16:27.718Z,100449.22
2023-01-13T14:18:32.978Z,100433.63
2023-01-13T14:20:36.851Z,100424.72
2023-01-13T14:22:39.696Z,100410.09
2023-01-13T14:24:47.262Z,100407.47
2023-01-13T14:26:53.046Z,100409.19
2023-01-13T14:28:57.334Z,100398.06
2023-01-13T14:31:01.268Z,100403.38
2023-01-13T14:33:04.317Z,100397.31
2023-01-13T14:35:08.264Z,100399.03
2023-01-13T14:37:24.824Z,100393.84
2023-01-13T14:39:37.243Z,100397.41
2023-01-13T14:41:48.969Z,100402.59
2023-01-13T14:43:55.766Z,100405.06
2023-01-13T14:46:00.804Z,100403.22
2023-01-13T14:48:09.852Z,100398.13
2023-01-13T14:50:28.094Z,100410.34
2023-01-13T14:52:33.370Z,100414.31
2023-01-13T14:54:47.834Z,100423.00
2023-01-13T14:56:53.702Z,100418.72
2023-01-13T14:58:57.889Z,100413.66
2023-01-13T15:01:29.708Z,100418.66
2023-01-13T15:03:42.088Z,100424.59
2023-01-13T15:05:50.179Z,100424.59
2023-01-13T15:07:55.256Z,100435.78
2023-01-13T15:09:59.135Z,100432.28
2023-01-13T15:12:16.977Z,100454.88
2023-01-13T15:14:27.109Z,100456.59
2023-01-13T15:16:33.774Z,100452.31
2023-01-13T15:18:40.078Z,100466.44
2023-01-13T15:20:43.475Z,100463.94
2023-01-13T15:22:46.439Z,100474.28
2023-01-13T15:24:50.059Z,100473.59
2023-01-13T15:26:52.826Z,100473.69
2023-01-13T15:28:57.647Z,100478.88
2023-01-13T15:31:03.511Z,100488.19
2023-01-13T15:33:06.279Z,100490.72
2023-01-13T15:35:10.945Z,100500.31
2023-01-13T15:37:14.258Z,100502.09
2023-01-13T15:39:17.046Z,100496.22
2023-01-13T15:41:40.735Z,100503.25
2023-01-13T15:44:01.011Z,100508.38
2023-01-13T15:46:33.667Z,100513.56
2023-01-13T15:48:36.660Z,100509.22
2023-01-13T15:50:40.041Z,100514.53
2023-01-13T15:52:42.925Z,100501.84
2023-01-13T15:54:45.792Z,100510.31
2023-01-13T15:56:48.723Z,100524.13
2023-01-13T15:58:51.804Z,100517.28
2023-01-13T16:00:54.821Z,100520.81
2023-01-13T16:02:59.758Z,100526.84
2023-01-13T16:05:02.595Z,100527.59
2023-01-13T16:07:14.711Z,100533.41
2023-01-13T16:09:17.781Z,100526.66
2023-01-13T16:11:20.607Z,100533.78
2023-01-13T16:13:23.445Z,100530.91
2023-01-13T16:15:26.268Z,100538.69
2023-01-13T16:17:30.133Z,100539.50
2023-01-13T16:19:34.373Z,100534.47
2023-01-13T16:21:37.173Z,100545.94
2023-01-13T16:23:40.098Z,100545.81
2023-01-13T16:25:44.990Z,100554.41
2023-01-13T16:27:47.756Z,100567.25
2023-01-13T16:29:51.525Z,100588.88
2023-01-13T16:31:54.438Z,100576.06
2023-01-13T16:33:57.585Z,100568.88
2023-01-13T16:36:10.253Z,100574.06
2023-01-13T16:38:16.697Z,100565.47
2023-01-13T16:40:24.549Z,100595.69
2023-01-13T16:42:27.354Z,100580.06
2023-01-13T16:44:31.594Z,100594.78
2023-01-13T16:46:35.123Z,100598.25
2023-01-13T16:48:37.993Z,100599.91
2023-01-13T16:50:42.348Z,100609.53
2023-01-13T16:52:46.501Z,100616.44
2023-01-13T16:54:49.307Z,100616.66
2023-01-13T16:56:52.100Z,100623.75
2023-01-13T16:58:56.929Z,100623.41
2023-01-13T17:00:59.606Z,100632.91
2023-01-13T17:03:03.239Z,100627.56
2023-01-13T17:05:06.668Z,100641.34
2023-01-13T17:07:10.850Z,100640.47
2023-01-13T17:09:17.399Z,100639.69
2023-01-13T17:11:21.632Z,100643.19
2023-01-13T17:13:24.549Z,100648.25
2023-01-13T17:15:27.445Z,100648.06
2023-01-13T17:17:30.289Z,100641.22
2023-01-13T17:19:33.235Z,100648.94
2023-01-13T17:21:36.525Z,100657.56
2023-01-13T17:23:39.409Z,100649.66
2023-01-13T17:25:43.666Z,100647.06
2023-01-13T17:27:46.534Z,100651.44
2023-01-13T17:29:49.387Z,100651.56
2023-01-13T17:31:53.262Z,100658.13
2023-01-13T17:33:56.245Z,100664.91
2023-01-13T17:35:58.962Z,100667.41
2023-01-13T17:38:02.948Z,100665.66
2023-01-13T17:40:06.991Z,100664.16
2023-01-13T17:42:11.248Z,100665.88
2023-01-13T17:44:14.243Z,100663.50
2023-01-13T17:46:18.577Z,100677.44
2023-01-13T17:48:21.694Z,100665.16
2023-01-13T17:50:24.737Z,100672.88
2023-01-13T17:52:27.633Z,100665.91
2023-01-13T17:54:30.444Z,100685.78
2023-01-13T17:56:33.199Z,100689.19
2023-01-13T17:58:37.474Z,100690.97
2023-01-13T18:00:40.543Z,100691.84
2023-01-13T18:02:43.405Z,100700.53
2023-01-13T18:04:46.204Z,100703.88
2023-01-13T18:06:49.503Z,100707.06
2023-01-13T20:58:26.535Z,100930.97
2023-01-13T21:00:29.646Z,100926.66
2023-01-13T21:02:32.528Z,100934.41
2023-01-13T21:04:35.475Z,100928.31
2023-01-13T21:06:41.563Z,100937.53
2023-01-13T21:08:46.363Z,100925.75
2023-01-13T21:10:49.114Z,100945.13
2023-01-13T21:13:09.429Z,100945.06
2023-01-13T21:15:19.895Z,100941.75
2023-01-13T21:17:40.720Z,100937.78
2023-01-13T21:19:43.541Z,100925.16
2023-01-13T21:21:46.347Z,100930.53
2023-01-13T21:23:52.835Z,100919.53
2023-01-13T21:25:55.721Z,100936.34
2023-01-13T21:28:03.187Z,100937.34
2023-01-13T21:30:07.199Z,100932.00
2023-01-13T21:32:11.397Z,100933.75
2023-01-13T21:34:16.946Z,100945.56
2023-01-13T21:36:19.825Z,100942.84
2023-01-13T21:38:22.641Z,100940.22
2023-01-13T21:40:25.506Z,100950.28
2023-01-13T21:42:46.133Z,100952.66
2023-01-13T21:45:06.832Z,100951.19
2023-01-13T21:47:33.944Z,100945.91
2023-01-13T21:49:43.882Z,100954.22
2023-01-13T21:51:46.771Z,100940.81
2023-01-13T21:53:49.553Z,100945.53
2023-01-13T21:55:53.017Z,100954.13
2023-01-13T21:57:57.831Z,100952.56
2023-01-13T22:00:00.473Z,100947.13
2023-01-13T22:02:25.199Z,100963.84
2023-01-13T22:04:29.587Z,100960.50
2023-01-13T22:06:32.473Z,100965.63
2023-01-13T22:08:35.679Z,100976.91
2023-01-13T22:10:56.835Z,100981.44
2023-01-13T22:13:22.191Z,100984.94
2023-01-13T22:15:27.011Z,100987.22
2023-01-13T22:17:31.513Z,100979.38
2023-01-13T22:19:39.052Z,100957.78
2023-01-13T22:21:41.869Z,100975.78
2023-01-13T22:23:45.009Z,100974.41
2023-01-13T22:25:47.862Z,100968.38
2023-01-13T22:27:52.353Z,100979.59
2023-01-13T22:29:55.546Z,100976.38
2023-01-13T22:31:58.354Z,100979.72
2023-01-13T22:34:01.106Z,100984.75
2023-01-13T22:36:06.010Z,100984.91
2023-01-13T22:38:11.975Z,100981.50
2023-01-13T22:40:15.049Z,100987.53
2023-01-13T22:42:17.827Z,100993.56
2023-01-13T22:44:21.197Z,101004.66
2023-01-13T22:46:23.982Z,101004.03
2023-01-13T22:48:27.266Z,101006.28
2023-01-13T22:50:30.216Z,101001.84
2023-01-13T22:52:35.424Z,101004.50
2023-01-13T22:54:38.229Z,101002.53
2023-01-13T22:56:41.508Z,101006.81
2023-01-13T22:58:44.684Z,101014.25
2023-01-13T23:00:47.733Z,101014.50
2023-01-13T23:02:50.489Z,101024.97
2023-01-13T23:04:53.473Z,101020.56
2023-01-13T23:06:56.257Z,101028.94
2023-01-13T23:09:01.495Z,101024.09
2023-01-13T23:11:06.206Z,101032.63
2023-01-13T23:13:09.808Z,101025.72
2023-01-13T23:15:12.804Z,101024.16
2023-01-13T23:17:15.602Z,101024.22
2023-01-13T23:19:18.405Z,101031.75
2023-01-13T23:21:23.199Z,101026.34
2023-01-13T23:23:25.987Z,101027.38
2023-01-13T23:25:30.158Z,101037.03
2023-01-13T23:27:34.228Z,101042.19
2023-01-13T23:29:37.087Z,101028.81
2023-01-13T23:31:40.281Z,101037.25
2023-01-13T23:33:43.970Z,101037.94
2023-01-13T23:35:56.345Z,101039.00
2023-01-13T23:37:59.149Z,101033.78
2023-01-13T23:40:02.326Z,101033.66
2023-01-13T23:42:06.747Z,101031.88
2023-01-13T23:44:10.611Z,101031.22
2023-01-13T23:46:16.278Z,101031.28
2023-01-13T23:48:19.148Z,101036.47
2023-01-13T23:50:21.935Z,101032.06
2023-01-13T23:52:24.747Z,101037.94
2023-01-13T23:54:27.612Z,101029.88
2023-01-13T23:56:32.279Z,101027.09
2023-01-13T23:58:36.480Z,101027.19
